sensor_id;sensor_type;location;lat;lon;timestamp;pressure;altitude;pressure_sealevel;temperature;humidity
39141;BME280;24875;48.436;10.298;2022-10-16T00:02:21;96234.66;;;15.35;100.00
39141;BME280;24875;48.436;10.298;2022-10-16T00:04:48;96236.53;;;15.28;100.00
39141;BME280;24875;48.436;10.298;2022-10-16T00:07:14;96234.91;;;15.27;100.00
39141;BME280;24875;48.436;10.298;2022-10-16T00:09:41;96233.88;;;15.22;100.00
39141;BME280;24875;48.436;10.298;2022-10-16T00:12:07;96241.03;;;15.21;100.00
39141;BME280;24875;48.436;10.298;2022-10-16T00:14:34;96241.41;;;15.18;100.00
39141;BME280;24875;48.436;10.298;2022-10-16T00:17:00;96234.44;;;15.17;100.00
39141;BME280;24875;48.436;10.298;2022-10-16T00:19:28;96245.69;;;15.19;100.00
39141;BME280;24875;48.436;10.298;2022-10-16T00:21:55;96248.16;;;15.14;100.00
39141;BME280;24875;48.436;10.298;2022-10-16T00:24:21;96242.25;;;15.12;100.00
39141;BME280;24875;48.436;10.298;2022-10-16T00:26:49;96246.91;;;15.17;100.00
39141;BME280;24875;48.436;10.298;2022-10-16T00:29:15;96238.34;;;15.08;100.00
39141;BME280;24875;48.436;10.298;2022-10-16T00:31:42;96243.66;;;15.08;100.00
39141;BME280;24875;48.436;10.298;2022-10-16T00:34:08;96248.94;;;15.08;100.00
39141;BME280;24875;48.436;10.298;2022-10-16T00:36:36;96244.91;;;15.12;100.00
39141;BME280;24875;48.436;10.298;2022-10-16T00:39:03;96236.50;;;15.09;100.00
39141;BME280;24875;48.436;10.298;2022-10-16T00:41:30;96234.88;;;15.01;100.00
39141;BME280;24875;48.436;10.298;2022-10-16T00:43:58;96232.44;;;15.13;100.00
39141;BME280;24875;48.436;10.298;2022-10-16T00:46:27;96229.16;;;15.11;100.00
39141;BME280;24875;48.436;10.298;2022-10-16T00:48:58;96228.13;;;15.18;100.00
39141;BME280;24875;48.436;10.298;2022-10-16T00:51:30;96233.84;;;15.15;100.00
39141;BME280;24875;48.436;10.298;2022-10-16T00:54:00;96219.38;;;15.11;100.00
39141;BME280;24875;48.436;10.298;2022-10-16T00:56:28;96227.72;;;15.02;100.00
39141;BME280;24875;48.436;10.298;2022-10-16T00:58:55;96220.97;;;14.99;100.00
39141;BME280;24875;48.436;10.298;2022-10-16T01:01:21;96216.50;;;14.93;100.00
39141;BME280;24875;48.436;10.298;2022-10-16T01:03:48;96228.72;;;14.88;100.00
39141;BME280;24875;48.436;10.298;2022-10-16T01:06:22;96228.75;;;14.94;100.00
39141;BME280;24875;48.436;10.298;2022-10-16T01:08:58;96238.13;;;14.90;100.00
39141;BME280;24875;48.436;10.298;2022-10-16T01:11:33;96242.00;;;14.88;100.00
39141;BME280;24875;48.436;10.298;2022-10-16T01:14:06;96244.06;;;14.79;100.00
39141;BME280;24875;48.436;10.298;2022-10-16T01:16:39;96246.50;;;14.74;100.00
39141;BME280;24875;48.436;10.298;2022-10-16T01:19:14;96235.66;;;14.69;100.00
39141;BME280;24875;48.436;10.298;2022-10-16T01:21:44;96236.47;;;14.63;100.00
39141;BME280;24875;48.436;10.298;2022-10-16T01:24:17;96240.97;;;14.63;100.00
39141;BME280;24875;48.436;10.298;2022-10-16T01:27:07;96239.94;;;14.51;100.00
39141;BME280;24875;48.436;10.298;2022-10-16T01:29:39;96239.47;;;14.35;100.00
39141;BME280;24875;48.436;10.298;2022-10-16T01:32:11;96245.56;;;14.29;100.00
39141;BME280;24875;48.436;10.298;2022-10-16T01:34:46;96249.84;;;14.30;100.00
39141;BME280;24875;48.436;10.298;2022-10-16T01:37:16;96253.09;;;14.25;100.00
39141;BME280;24875;48.436;10.298;2022-10-16T01:39:46;96253.00;;;14.06;100.00
39141;BME280;24875;48.436;10.298;2022-10-16T01:42:19;96243.31;;;14.19;100.00
39141;BME280;24875;48.436;10.298;2022-10-16T01:44:49;96244.66;;;14.09;100.00
39141;BME280;24875;48.436;10.298;2022-10-16T01:47:18;96246.94;;;14.12;100.00
39141;BME280;24875;48.436;10.298;2022-10-16T01:49:46;96239.50;;;14.01;100.00
39141;BME280;24875;48.436;10.298;2022-10-16T01:52:16;96242.38;;;13.99;100.00
39141;BME280;24875;48.436;10.298;2022-10-16T01:54:47;96241.16;;;14.02;100.00
39141;BME280;24875;48.436;10.298;2022-10-16T01:57:17;96238.69;;;13.94;100.00
39141;BME280;24875;48.436;10.298;2022-10-16T01:59:48;96238.25;;;13.91;100.00
39141;BME280;24875;48.436;10.298;2022-10-16T02:02:17;96240.88;;;13.84;100.00
39141;BME280;24875;48.436;10.298;2022-10-16T02:04:47;96247.22;;;13.90;100.00
39141;BME280;24875;48.436;10.298;2022-10-16T02:07:16;96243.97;;;13.94;100.00
39141;BME280;24875;48.436;10.298;2022-10-16T02:09:43;96243.16;;;14.00;100.00
39141;BME280;24875;48.436;10.298;2022-10-16T02:12:13;96233.06;;;14.10;100.00
39141;BME280;24875;48.436;10.298;2022-10-16T02:14:42;96248.97;;;14.10;100.00
39141;BME280;24875;48.436;10.298;2022-10-16T02:17:13;96244.91;;;14.14;100.00
39141;BME280;24875;48.436;10.298;2022-10-16T02:19:41;96242.06;;;14.15;100.00
39141;BME280;24875;48.436;10.298;2022-10-16T02:22:10;96243.88;;;14.15;100.00
39141;BME280;24875;48.436;10.298;2022-10-16T02:24:49;96246.75;;;14.13;100.00
39141;BME280;24875;48.436;10.298;2022-10-16T02:27:20;96251.59;;;14.10;100.00
39141;BME280;24875;48.436;10.298;2022-10-16T02:29:55;96255.44;;;14.07;100.00
39141;BME280;24875;48.436;10.298;2022-10-16T02:32:28;96255.50;;;14.14;100.00
39141;BME280;24875;48.436;10.298;2022-10-16T02:34:57;96252.19;;;14.05;100.00
39141;BME280;24875;48.436;10.298;2022-10-16T02:37:25;96258.50;;;14.04;100.00
39141;BME280;24875;48.436;10.298;2022-10-16T02:39:53;96256.91;;;14.10;100.00
39141;BME280;24875;48.436;10.298;2022-10-16T02:42:21;96249.53;;;14.05;100.00
39141;BME280;24875;48.436;10.298;2022-10-16T02:44:54;96258.34;;;14.12;100.00
39141;BME280;24875;48.436;10.298;2022-10-16T02:47:21;96271.34;;;14.07;100.00
39141;BME280;24875;48.436;10.298;2022-10-16T02:49:48;96277.09;;;14.11;100.00
39141;BME280;24875;48.436;10.298;2022-10-16T02:52:14;96280.97;;;14.08;100.00
39141;BME280;24875;48.436;10.298;2022-10-16T02:54:41;96283.56;;;14.02;100.00
39141;BME280;24875;48.436;10.298;2022-10-16T02:57:07;96284.75;;;13.99;100.00
39141;BME280;24875;48.436;10.298;2022-10-16T02:59:34;96280.25;;;13.94;100.00
39141;BME280;24875;48.436;10.298;2022-10-16T03:02:02;96269.28;;;14.03;100.00
39141;BME280;24875;48.436;10.298;2022-10-16T03:04:28;96272.53;;;13.98;100.00
39141;BME280;24875;48.436;10.298;2022-10-16T03:06:55;96291.06;;;13.98;100.00
39141;BME280;24875;48.436;10.298;2022-10-16T03:09:21;96275.47;;;14.10;100.00
39141;BME280;24875;48.436;10.298;2022-10-16T03:11:48;96269.56;;;14.08;100.00
39141;BME280;24875;48.436;10.298;2022-10-16T03:14:15;96261.59;;;14.08;100.00
39141;BME280;24875;48.436;10.298;2022-10-16T03:16:41;96266.41;;;13.98;100.00
39141;BME280;24875;48.436;10.298;2022-10-16T03:19:09;96267.66;;;14.02;100.00
39141;BME280;24875;48.436;10.298;2022-10-16T03:21:36;96266.66;;;14.03;100.00
39141;BME280;24875;48.436;10.298;2022-10-16T03:24:03;96273.44;;;14.12;100.00
39141;BME280;24875;48.436;10.298;2022-10-16T03:26:29;96266.03;;;14.07;100.00
39141;BME280;24875;48.436;10.298;2022-10-16T03:28:56;96259.69;;;14.02;100.00
39141;BME280;24875;48.436;10.298;2022-10-16T03:31:22;96271.16;;;14.09;100.00
39141;BME280;24875;48.436;10.298;2022-10-16T03:33:49;96270.16;;;14.10;100.00
39141;BME280;24875;48.436;10.298;2022-10-16T03:36:17;96271.03;;;14.17;100.00
39141;BME280;24875;48.436;10.298;2022-10-16T03:38:43;96269.34;;;14.09;100.00
39141;BME280;24875;48.436;10.298;2022-10-16T03:41:10;96263.28;;;14.22;100.00
39141;BME280;24875;48.436;10.298;2022-10-16T03:43:37;96268.59;;;14.22;100.00
39141;BME280;24875;48.436;10.298;2022-10-16T03:46:04;96271.47;;;14.27;100.00
39141;BME280;24875;48.436;10.298;2022-10-16T03:48:31;96264.31;;;14.21;100.00
39141;BME280;24875;48.436;10.298;2022-10-16T03:50:58;96266.97;;;14.27;100.00
39141;BME280;24875;48.436;10.298;2022-10-16T03:53:26;96253.53;;;14.29;100.00
39141;BME280;24875;48.436;10.298;2022-10-16T03:55:53;96257.19;;;14.28;100.00
39141;BME280;24875;48.436;10.298;2022-10-16T03:58:19;96258.22;;;14.27;100.00
39141;BME280;24875;48.436;10.298;2022-10-16T04:00:46;96262.06;;;14.18;100.00
39141;BME280;24875;48.436;10.298;2022-10-16T04:03:14;96262.84;;;14.12;100.00
39141;BME280;24875;48.436;10.298;2022-10-16T04:05:40;96255.69;;;14.12;100.00
39141;BME280;24875;48.436;10.298;2022-10-16T04:08:07;96259.56;;;14.10;100.00
39141;BME280;24875;48.436;10.298;2022-10-16T04:10:35;96272.81;;;14.10;100.00
39141;BME280;24875;48.436;10.298;2022-10-16T04:13:02;96268.53;;;14.09;100.00
39141;BME280;24875;48.436;10.298;2022-10-16T04:15:28;96263.84;;;14.11;100.00
39141;BME280;24875;48.436;10.298;2022-10-16T04:17:55;96264.84;;;14.10;100.00
39141;BME280;24875;48.436;10.298;2022-10-16T04:20:21;96263.84;;;14.11;100.00
39141;BME280;24875;48.436;10.298;2022-10-16T04:22:48;96272.59;;;14.11;100.00
39141;BME280;24875;48.436;10.298;2022-10-16T04:25:14;96283.56;;;14.02;100.00
39141;BME280;24875;48.436;10.298;2022-10-16T04:27:42;96289.78;;;14.15;100.00
39141;BME280;24875;48.436;10.298;2022-10-16T04:30:10;96285.28;;;14.16;100.00
39141;BME280;24875;48.436;10.298;2022-10-16T04:32:36;96287.69;;;14.11;100.00
39141;BME280;24875;48.436;10.298;2022-10-16T04:35:03;96285.78;;;14.05;100.00
39141;BME280;24875;48.436;10.298;2022-10-16T04:37:30;96283.31;;;13.97;100.00
39141;BME280;24875;48.436;10.298;2022-10-16T04:39:56;96286.81;;;13.98;100.00
39141;BME280;24875;48.436;10.298;2022-10-16T04:42:23;96294.13;;;13.96;100.00
39141;BME280;24875;48.436;10.298;2022-10-16T04:44:51;96286.38;;;13.94;100.00
39141;BME280;24875;48.436;10.298;2022-10-16T04:47:18;96293.31;;;13.95;100.00
39141;BME280;24875;48.436;10.298;2022-10-16T04:49:45;96288.56;;;13.84;100.00
39141;BME280;24875;48.436;10.298;2022-10-16T04:52:11;96302.19;;;13.81;100.00
39141;BME280;24875;48.436;10.298;2022-10-16T04:54:38;96304.00;;;13.81;100.00
39141;BME280;24875;48.436;10.298;2022-10-16T04:57:04;96291.59;;;13.81;100.00
39141;BME280;24875;48.436;10.298;2022-10-16T04:59:31;96279.13;;;13.75;100.00
39141;BME280;24875;48.436;10.298;2022-10-16T05:01:59;96294.00;;;13.76;100.00
39141;BME280;24875;48.436;10.298;2022-10-16T05:04:25;96292.78;;;13.72;100.00
39141;BME280;24875;48.436;10.298;2022-10-16T05:06:52;96299.22;;;13.63;100.00
39141;BME280;24875;48.436;10.298;2022-10-16T05:09:18;96308.66;;;13.72;100.00
39141;BME280;24875;48.436;10.298;2022-10-16T05:11:45;96316.59;;;13.72;100.00
39141;BME280;24875;48.436;10.298;2022-10-16T05:14:12;96318.63;;;13.70;100.00
39141;BME280;24875;48.436;10.298;2022-10-16T05:16:39;96313.88;;;13.59;100.00
39141;BME280;24875;48.436;10.298;2022-10-16T05:19:07;96317.53;;;13.58;100.00
39141;BME280;24875;48.436;10.298;2022-10-16T05:21:33;96317.69;;;13.50;100.00
39141;BME280;24875;48.436;10.298;2022-10-16T05:24:00;96313.16;;;13.44;100.00
39141;BME280;24875;48.436;10.298;2022-10-16T05:26:26;96312.16;;;13.45;100.00
39141;BME280;24875;48.436;10.298;2022-10-16T05:28:53;96313.41;;;13.49;100.00
39141;BME280;24875;48.436;10.298;2022-10-16T05:31:19;96312.56;;;13.49;100.00
39141;BME280;24875;48.436;10.298;2022-10-16T05:33:46;96307.25;;;13.49;100.00
39141;BME280;24875;48.436;10.298;2022-10-16T05:36:14;96295.91;;;13.55;100.00
39141;BME280;24875;48.436;10.298;2022-10-16T05:38:40;96305.56;;;13.41;100.00
39141;BME280;24875;48.436;10.298;2022-10-16T05:41:07;96305.81;;;13.46;100.00
39141;BME280;24875;48.436;10.298;2022-10-16T05:43:34;96308.84;;;13.43;100.00
39141;BME280;24875;48.436;10.298;2022-10-16T05:46:04;96316.66;;;13.51;100.00
39141;BME280;24875;48.436;10.298;2022-10-16T05:48:32;96316.94;;;13.36;100.00
39141;BME280;24875;48.436;10.298;2022-10-16T05:50:59;96311.31;;;13.45;100.00
39141;BME280;24875;48.436;10.298;2022-10-16T05:53:30;96324.88;;;13.36;100.00
39141;BME280;24875;48.436;10.298;2022-10-16T05:55:57;96318.59;;;13.37;100.00
39141;BME280;24875;48.436;10.298;2022-10-16T05:58:25;96327.34;;;13.37;100.00
39141;BME280;24875;48.436;10.298;2022-10-16T06:00:56;96324.28;;;13.40;100.00
39141;BME280;24875;48.436;10.298;2022-10-16T06:03:23;96335.66;;;13.34;100.00
39141;BME280;24875;48.436;10.298;2022-10-16T06:05:49;96336.03;;;13.31;100.00
39141;BME280;24875;48.436;10.298;2022-10-16T06:08:16;96329.03;;;13.44;100.00
39141;BME280;24875;48.436;10.298;2022-10-16T06:10:45;96332.53;;;13.51;100.00
39141;BME280;24875;48.436;10.298;2022-10-16T06:13:12;96339.31;;;13.60;100.00
39141;BME280;24875;48.436;10.298;2022-10-16T06:15:38;96337.56;;;13.67;100.00
39141;BME280;24875;48.436;10.298;2022-10-16T06:18:07;96342.84;;;13.67;100.00
39141;BME280;24875;48.436;10.298;2022-10-16T06:20:33;96349.78;;;13.68;100.00
39141;BME280;24875;48.436;10.298;2022-10-16T06:23:00;96352.31;;;13.83;100.00
39141;BME280;24875;48.436;10.298;2022-10-16T06:25:26;96359.09;;;13.92;100.00
39141;BME280;24875;48.436;10.298;2022-10-16T06:27:54;96352.00;;;13.98;100.00
39141;BME280;24875;48.436;10.298;2022-10-16T06:30:21;96359.38;;;14.03;100.00
39141;BME280;24875;48.436;10.298;2022-10-16T06:32:47;96362.72;;;14.11;100.00
39141;BME280;24875;48.436;10.298;2022-10-16T06:35:14;96361.16;;;14.23;100.00
39141;BME280;24875;48.436;10.298;2022-10-16T06:37:40;96370.94;;;14.23;100.00
39141;BME280;24875;48.436;10.298;2022-10-16T06:40:07;96364.91;;;14.42;100.00
39141;BME280;24875;48.436;10.298;2022-10-16T06:42:34;96365.78;;;14.49;100.00
39141;BME280;24875;48.436;10.298;2022-10-16T06:45:02;96370.44;;;14.47;100.00
39141;BME280;24875;48.436;10.298;2022-10-16T06:47:29;96368.03;;;14.58;100.00
39141;BME280;24875;48.436;10.298;2022-10-16T06:49:55;96368.69;;;14.66;100.00
39141;BME280;24875;48.436;10.298;2022-10-16T06:52:22;96365.44;;;14.71;100.00
39141;BME280;24875;48.436;10.298;2022-10-16T06:54:49;96373.63;;;14.76;100.00
39141;BME280;24875;48.436;10.298;2022-10-16T06:57:16;96372.00;;;14.81;100.00
39141;BME280;24875;48.436;10.298;2022-10-16T06:59:42;96385.47;;;14.80;100.00
39141;BME280;24875;48.436;10.298;2022-10-16T07:02:10;96384.91;;;14.91;100.00
39141;BME280;24875;48.436;10.298;2022-10-16T07:04:37;96383.91;;;14.98;100.00
39141;BME280;24875;48.436;10.298;2022-10-16T07:07:04;96401.63;;;14.91;100.00
39141;BME280;24875;48.436;10.298;2022-10-16T07:09:30;96389.03;;;15.13;100.00
39141;BME280;24875;48.436;10.298;2022-10-16T07:11:57;96412.06;;;15.06;100.00
39141;BME280;24875;48.436;10.298;2022-10-16T07:14:23;96402.16;;;15.27;100.00
39141;BME280;24875;48.436;10.298;2022-10-16T07:16:50;96421.97;;;15.31;100.00
39141;BME280;24875;48.436;10.298;2022-10-16T07:19:18;96407.69;;;15.58;100.00
39141;BME280;24875;48.436;10.298;2022-10-16T07:21:45;96411.00;;;15.60;100.00
39141;BME280;24875;48.436;10.298;2022-10-16T07:24:13;96417.53;;;15.64;100.00
39141;BME280;24875;48.436;10.298;2022-10-16T07:26:43;96416.09;;;15.81;100.00
39141;BME280;24875;48.436;10.298;2022-10-16T07:29:13;96435.31;;;15.70;100.00
39141;BME280;24875;48.436;10.298;2022-10-16T07:31:39;96432.03;;;15.87;100.00
39141;BME280;24875;48.436;10.298;2022-10-16T07:34:06;96433.09;;;15.80;100.00
39141;BME280;24875;48.436;10.298;2022-10-16T07:36:34;96431.44;;;15.98;100.00
39141;BME280;24875;48.436;10.298;2022-10-16T07:39:01;96431.44;;;15.98;100.00
39141;BME280;24875;48.436;10.298;2022-10-16T07:41:27;96427.34;;;16.02;100.00
39141;BME280;24875;48.436;10.298;2022-10-16T07:43:54;96426.53;;;15.95;100.00
39141;BME280;24875;48.436;10.298;2022-10-16T07:46:23;96431.84;;;16.08;100.00
39141;BME280;24875;48.436;10.298;2022-10-16T07:48:50;96435.31;;;16.15;100.00
39141;BME280;24875;48.436;10.298;2022-10-16T07:51:18;96432.44;;;16.29;100.00
39141;BME280;24875;48.436;10.298;2022-10-16T07:53:47;96441.25;;;16.30;100.00
39141;BME280;24875;48.436;10.298;2022-10-16T07:56:15;96443.69;;;16.31;100.00
39141;BME280;24875;48.436;10.298;2022-10-16T07:58:43;96444.53;;;16.38;100.00
39141;BME280;24875;48.436;10.298;2022-10-16T08:01:11;96448.59;;;16.47;100.00
39141;BME280;24875;48.436;10.298;2022-10-16T08:03:38;96449.41;;;16.41;100.00
39141;BME280;24875;48.436;10.298;2022-10-16T08:06:07;96462.94;;;16.33;100.00
39141;BME280;24875;48.436;10.298;2022-10-16T08:08:34;96466.81;;;16.44;100.00
39141;BME280;24875;48.436;10.298;2022-10-16T08:11:02;96462.47;;;16.62;100.00
39141;BME280;24875;48.436;10.298;2022-10-16T08:13:29;96473.97;;;16.56;100.00
39141;BME280;24875;48.436;10.298;2022-10-16T08:15:56;96468.78;;;16.67;100.00
39141;BME280;24875;48.436;10.298;2022-10-16T08:18:23;96479.84;;;16.71;100.00
39141;BME280;24875;48.436;10.298;2022-10-16T08:20:55;96471.84;;;16.71;100.00
39141;BME280;24875;48.436;10.298;2022-10-16T08:23:21;96483.34;;;16.52;100.00
39141;BME280;24875;48.436;10.298;2022-10-16T08:25:48;96492.34;;;16.70;100.00
39141;BME280;24875;48.436;10.298;2022-10-16T08:28:16;96497.69;;;16.64;100.00
39141;BME280;24875;48.436;10.298;2022-10-16T08:30:43;96498.50;;;16.58;100.00
39141;BME280;24875;48.436;10.298;2022-10-16T08:33:09;96494.59;;;16.60;100.00
39141;BME280;24875;48.436;10.298;2022-10-16T08:35:36;96496.28;;;16.48;100.00
39141;BME280;24875;48.436;10.298;2022-10-16T08:38:03;96504.44;;;16.60;100.00
39141;BME280;24875;48.436;10.298;2022-10-16T08:40:32;96503.81;;;16.64;100.00
39141;BME280;24875;48.436;10.298;2022-10-16T08:43:28;96508.72;;;16.74;100.00
39141;BME280;24875;48.436;10.298;2022-10-16T08:46:12;96508.09;;;16.65;100.00
39141;BME280;24875;48.436;10.298;2022-10-16T08:48:45;96508.28;;;16.77;100.00
39141;BME280;24875;48.436;10.298;2022-10-16T08:51:19;96508.06;;;16.78;100.00
39141;BME280;24875;48.436;10.298;2022-10-16T08:53:51;96500.06;;;16.91;100.00
39141;BME280;24875;48.436;10.298;2022-10-16T08:56:18;96506.66;;;16.76;100.00
39141;BME280;24875;48.436;10.298;2022-10-16T08:58:47;96506.25;;;16.66;100.00
39141;BME280;24875;48.436;10.298;2022-10-16T09:01:16;96522.16;;;16.98;100.00
39141;BME280;24875;48.436;10.298;2022-10-16T09:04:05;96521.25;;;17.17;100.00
39141;BME280;24875;48.436;10.298;2022-10-16T09:06:46;96524.53;;;17.19;100.00
39141;BME280;24875;48.436;10.298;2022-10-16T09:09:42;96521.25;;;17.17;100.00
39141;BME280;24875;48.436;10.298;2022-10-16T09:12:19;96524.53;;;17.19;100.00
39141;BME280;24875;48.436;10.298;2022-10-16T09:15:11;96513.28;;;17.23;100.00
39141;BME280;24875;48.436;10.298;2022-10-16T09:17:47;96513.91;;;17.12;100.00
39141;BME280;24875;48.436;10.298;2022-10-16T09:20:26;96515.50;;;17.33;100.00
39141;BME280;24875;48.436;10.298;2022-10-16T09:23:07;96516.75;;;17.30;100.00
39141;BME280;24875;48.436;10.298;2022-10-16T09:25:37;96516.97;;;17.22;100.00
39141;BME280;24875;48.436;10.298;2022-10-16T09:28:07;96524.94;;;17.29;100.00
39141;BME280;24875;48.436;10.298;2022-10-16T09:30:37;96527.53;;;17.48;100.00
39141;BME280;24875;48.436;10.298;2022-10-16T09:33:04;96530.84;;;17.37;100.00
39141;BME280;24875;48.436;10.298;2022-10-16T09:35:35;96527.78;;;17.40;100.00
39141;BME280;24875;48.436;10.298;2022-10-16T09:38:02;96534.72;;;17.48;100.00
39141;BME280;24875;48.436;10.298;2022-10-16T09:40:31;96536.06;;;17.63;100.00
39141;BME280;24875;48.436;10.298;2022-10-16T09:43:03;96529.53;;;17.59;100.00
39141;BME280;24875;48.436;10.298;2022-10-16T09:45:32;96540.03;;;17.85;100.00
39141;BME280;24875;48.436;10.298;2022-10-16T09:48:01;96542.50;;;18.17;100.00
39141;BME280;24875;48.436;10.298;2022-10-16T09:50:36;96540.50;;;18.61;100.00
39141;BME280;24875;48.436;10.298;2022-10-16T09:53:05;96543.06;;;18.74;100.00
39141;BME280;24875;48.436;10.298;2022-10-16T09:55:32;96553.97;;;19.15;100.00
39141;BME280;24875;48.436;10.298;2022-10-16T09:57:58;96549.16;;;19.23;99.26
39141;BME280;24875;48.436;10.298;2022-10-16T10:00:25;96555.41;;;18.93;96.62
39141;BME280;24875;48.436;10.298;2022-10-16T10:02:52;96564.38;;;18.98;97.73
39141;BME280;24875;48.436;10.298;2022-10-16T10:05:23;96565.31;;;19.28;98.22
39141;BME280;24875;48.436;10.298;2022-10-16T10:07:55;96573.38;;;19.04;95.30
39141;BME280;24875;48.436;10.298;2022-10-16T10:10:25;96575.66;;;19.07;95.28
39141;BME280;24875;48.436;10.298;2022-10-16T10:12:52;96570.00;;;19.15;100.00
39141;BME280;24875;48.436;10.298;2022-10-16T10:15:19;96562.81;;;19.33;98.40
39141;BME280;24875;48.436;10.298;2022-10-16T10:17:49;96559.84;;;20.06;95.21
39141;BME280;24875;48.436;10.298;2022-10-16T10:20:24;96554.50;;;20.06;91.13
39141;BME280;24875;48.436;10.298;2022-10-16T10:22:51;96562.97;;;19.85;92.40
39141;BME280;24875;48.436;10.298;2022-10-16T10:25:32;96560.09;;;19.69;93.93
39141;BME280;24875;48.436;10.298;2022-10-16T10:28:18;96546.03;;;19.26;95.60
39141;BME280;24875;48.436;10.298;2022-10-16T10:30:54;96550.97;;;19.58;95.10
39141;BME280;24875;48.436;10.298;2022-10-16T10:33:29;96560.66;;;19.42;93.52
39141;BME280;24875;48.436;10.298;2022-10-16T10:36:05;96563.47;;;19.47;94.15
39141;BME280;24875;48.436;10.298;2022-10-16T10:38:41;96556.50;;;19.46;95.84
39141;BME280;24875;48.436;10.298;2022-10-16T10:41:28;96555.41;;;19.35;96.91
39141;BME280;24875;48.436;10.298;2022-10-16T10:44:05;96555.78;;;19.39;97.53
39141;BME280;24875;48.436;10.298;2022-10-16T10:46:35;96556.28;;;19.29;96.89
39141;BME280;24875;48.436;10.298;2022-10-16T10:49:14;96559.19;;;19.28;97.27
39141;BME280;24875;48.436;10.298;2022-10-16T10:51:55;96557.25;;;19.35;97.57
39141;BME280;24875;48.436;10.298;2022-10-16T10:54:28;96552.88;;;19.40;99.66
39141;BME280;24875;48.436;10.298;2022-10-16T10:56:58;96556.88;;;19.31;100.00
39141;BME280;24875;48.436;10.298;2022-10-16T11:00:03;96551.38;;;19.44;100.00
39141;BME280;24875;48.436;10.298;2022-10-16T11:02:37;96549.75;;;19.43;100.00
39141;BME280;24875;48.436;10.298;2022-10-16T11:05:22;96546.84;;;19.45;100.00
39141;BME280;24875;48.436;10.298;2022-10-16T11:07:55;96541.63;;;19.50;99.76
39141;BME280;24875;48.436;10.298;2022-10-16T11:10:27;96537.66;;;19.70;99.53
39141;BME280;24875;48.436;10.298;2022-10-16T11:12:58;96540.25;;;19.76;99.51
39141;BME280;24875;48.436;10.298;2022-10-16T11:15:36;96532.50;;;19.86;100.00
39141;BME280;24875;48.436;10.298;2022-10-16T11:18:06;96534.72;;;19.89;100.00
39141;BME280;24875;48.436;10.298;2022-10-16T11:20:37;96522.28;;;19.83;100.00
39141;BME280;24875;48.436;10.298;2022-10-16T11:23:11;96524.19;;;19.94;98.07
39141;BME280;24875;48.436;10.298;2022-10-16T11:25:43;96523.28;;;20.00;98.62
39141;BME280;24875;48.436;10.298;2022-10-16T11:28:12;96517.13;;;20.00;100.00
39141;BME280;24875;48.436;10.298;2022-10-16T11:30:44;96507.63;;;20.15;98.18
39141;BME280;24875;48.436;10.298;2022-10-16T11:33:24;96513.44;;;20.23;98.83
39141;BME280;24875;48.436;10.298;2022-10-16T11:36:00;96509.03;;;20.18;98.59
39141;BME280;24875;48.436;10.298;2022-10-16T11:38:34;96515.81;;;20.20;96.89
39141;BME280;24875;48.436;10.298;2022-10-16T11:41:12;96505.00;;;20.38;94.32
39141;BME280;24875;48.436;10.298;2022-10-16T11:43:48;96505.28;;;20.18;97.86
39141;BME280;24875;48.436;10.298;2022-10-16T11:46:20;96507.88;;;20.36;97.13
39141;BME280;24875;48.436;10.298;2022-10-16T11:48:51;96508.97;;;20.47;93.95
39141;BME280;24875;48.436;10.298;2022-10-16T11:51:25;96503.03;;;20.56;95.11
39141;BME280;24875;48.436;10.298;2022-10-16T11:54:03;96503.28;;;20.55;96.27
39141;BME280;24875;48.436;10.298;2022-10-16T11:56:32;96505.59;;;20.63;95.95
39141;BME280;24875;48.436;10.298;2022-10-16T11:59:04;96504.66;;;20.57;93.73
39141;BME280;24875;48.436;10.298;2022-10-16T12:01:38;96504.06;;;20.67;93.53
39141;BME280;24875;48.436;10.298;2022-10-16T12:04:18;96510.31;;;20.79;92.64
39141;BME280;24875;48.436;10.298;2022-10-16T12:06:51;96507.72;;;20.72;96.97
39141;BME280;24875;48.436;10.298;2022-10-16T12:09:23;96504.44;;;20.59;97.57
39141;BME280;24875;48.436;10.298;2022-10-16T12:11:51;96509.19;;;20.57;97.35
39141;BME280;24875;48.436;10.298;2022-10-16T12:17:03;96507.44;;;20.39;100.00
39141;BME280;24875;48.436;10.298;2022-10-16T12:19:32;96517.16;;;20.22;100.00
39141;BME280;24875;48.436;10.298;2022-10-16T12:22:00;96514.41;;;20.29;100.00
39141;BME280;24875;48.436;10.298;2022-10-16T12:24:37;96519.53;;;20.30;100.00
39141;BME280;24875;48.436;10.298;2022-10-16T12:27:06;96506.28;;;20.35;100.00
39141;BME280;24875;48.436;10.298;2022-10-16T12:29:36;96515.25;;;20.41;98.28
39141;BME280;24875;48.436;10.298;2022-10-16T12:32:05;96503.16;;;20.50;97.31
39141;BME280;24875;48.436;10.298;2022-10-16T12:34:37;96506.06;;;20.71;95.54
39141;BME280;24875;48.436;10.298;2022-10-16T12:37:11;96514.13;;;20.83;96.16
39141;BME280;24875;48.436;10.298;2022-10-16T12:39:40;96512.50;;;20.82;95.55
39141;BME280;24875;48.436;10.298;2022-10-16T12:42:21;96509.81;;;21.04;92.76
39141;BME280;24875;48.436;10.298;2022-10-16T12:44:48;96509.00;;;20.92;93.02
39141;BME280;24875;48.436;10.298;2022-10-16T12:47:23;96498.72;;;21.24;89.05
39141;BME280;24875;48.436;10.298;2022-10-16T12:49:52;96503.03;;;21.25;88.73
39141;BME280;24875;48.436;10.298;2022-10-16T12:52:27;96504.59;;;21.37;88.94
39141;BME280;24875;48.436;10.298;2022-10-16T12:54:58;96507.50;;;21.47;87.23
39141;BME280;24875;48.436;10.298;2022-10-16T12:57:39;96510.31;;;21.52;84.99
39141;BME280;24875;48.436;10.298;2022-10-16T13:00:20;96508.31;;;21.59;86.32